createdAt,value
2018-10-09T00:00:51.248Z,62.77
2018-10-09T00:03:19.222Z,69.50
2018-10-09T00:05:47.061Z,64.60
2018-10-09T00:08:15.914Z,65.87
2018-10-09T00:10:43.757Z,75.83
2018-10-09T00:13:11.639Z,70.97
2018-10-09T00:15:39.475Z,67.87
2018-10-09T00:18:07.406Z,57.00
2018-10-09T00:20:35.206Z,67.30
2018-10-09T00:23:03.045Z,70.67
2018-10-09T00:25:30.880Z,74.43
2018-10-09T00:27:59.694Z,81.53
2018-10-09T00:30:27.569Z,87.93
2018-10-09T00:32:55.738Z,81.23
2018-10-09T00:35:23.533Z,79.90
2018-10-09T00:37:51.394Z,75.97
2018-10-09T00:40:19.187Z,75.40
2018-10-09T00:42:48.010Z,71.73
2018-10-09T00:45:15.849Z,72.93
2018-10-09T00:47:43.735Z,75.67
2018-10-09T00:50:11.617Z,65.70
2018-10-09T00:52:39.557Z,77.27
2018-10-09T00:55:07.770Z,75.53
2018-10-09T00:57:35.865Z,80.77
2018-10-09T01:00:03.934Z,79.20
2018-10-09T01:02:31.839Z,87.33
2018-10-09T01:05:20.926Z,85.00
2018-10-09T01:07:48.756Z,69.43
2018-10-09T01:10:16.533Z,65.20
2018-10-09T01:12:44.369Z,73.73
2018-10-09T01:15:12.158Z,71.40
2018-10-09T01:17:40.039Z,72.23
2018-10-09T01:20:07.851Z,83.97
2018-10-09T01:22:35.879Z,86.40
2018-10-09T01:25:03.793Z,97.17
2018-10-09T01:27:31.658Z,95.90
2018-10-09T01:29:59.444Z,92.10
2018-10-09T01:32:27.248Z,92.93
2018-10-09T01:34:55.044Z,90.97
2018-10-09T01:37:22.914Z,90.40
2018-10-09T01:39:50.779Z,87.90
2018-10-09T01:42:18.624Z,122.25
2018-10-09T01:44:46.443Z,91.23
2018-10-09T01:47:14.261Z,95.60
2018-10-09T01:49:42.120Z,101.27
2018-10-09T01:52:09.944Z,94.00
2018-10-09T01:54:37.800Z,90.03
2018-10-09T01:57:05.693Z,85.20
2018-10-09T01:59:34.495Z,85.30
2018-10-09T02:02:02.327Z,85.27
2018-10-09T02:04:31.156Z,79.30
2018-10-09T02:06:58.999Z,81.30
2018-10-09T02:09:26.830Z,87.33
2018-10-09T02:11:54.657Z,96.80
2018-10-09T02:14:22.454Z,97.80
2018-10-09T02:16:50.322Z,97.77
2018-10-09T02:19:18.186Z,103.00
2018-10-09T02:21:46.071Z,103.53
2018-10-09T02:24:13.897Z,106.93
2018-10-09T02:26:42.706Z,101.03
2018-10-09T02:29:10.557Z,100.23
2018-10-09T02:31:38.403Z,98.20
2018-10-09T02:34:06.261Z,99.67
2018-10-09T02:36:34.112Z,98.80
2018-10-09T02:39:01.960Z,101.10
2018-10-09T02:41:29.802Z,99.63
2018-10-09T02:43:57.660Z,99.20
2018-10-09T02:46:25.501Z,104.73
2018-10-09T02:48:53.303Z,100.13
2018-10-09T02:51:21.130Z,100.70
2018-10-09T02:53:48.985Z,99.17
2018-10-09T02:56:16.826Z,98.63
2018-10-09T02:58:44.623Z,103.00
2018-10-09T03:01:12.402Z,105.03
2018-10-09T03:03:40.216Z,101.80
2018-10-09T03:06:08.188Z,102.63
2018-10-09T03:08:36.236Z,101.13
2018-10-09T03:11:04.181Z,102.93
2018-10-09T03:13:32.014Z,98.87
2018-10-09T03:15:59.952Z,94.83
2018-10-09T03:18:27.768Z,83.67
2018-10-09T03:20:55.677Z,88.03
2018-10-09T03:23:23.609Z,82.10
2018-10-09T03:25:51.559Z,87.70
2018-10-09T03:28:19.368Z,89.77
2018-10-09T03:30:47.393Z,86.27
2018-10-09T03:33:15.217Z,88.77
2018-10-09T03:35:43.257Z,90.17
2018-10-09T03:38:11.080Z,97.47
2018-10-09T03:40:39.109Z,95.43
2018-10-09T03:43:07.017Z,96.43
2018-10-09T03:45:35.235Z,99.90
2018-10-09T03:48:03.165Z,100.27
2018-10-09T03:50:32.124Z,100.60
2018-10-09T03:52:59.950Z,99.03
2018-10-09T03:55:27.804Z,102.80
2018-10-09T03:57:55.685Z,105.07
2018-10-09T04:00:23.480Z,98.93
2018-10-09T04:02:51.299Z,98.77
2018-10-09T04:05:19.112Z,96.13
2018-10-09T04:07:46.924Z,98.40
2018-10-09T04:10:14.778Z,102.73
2018-10-09T04:12:42.567Z,100.80
2018-10-09T04:15:10.427Z,101.37
2018-10-09T04:17:38.244Z,101.70
2018-10-09T04:20:06.092Z,103.80
2018-10-09T04:22:33.939Z,107.27
2018-10-09T04:25:02.795Z,108.87
2018-10-09T04:27:30.609Z,107.70
2018-10-09T04:29:58.446Z,101.20
2018-10-09T04:32:26.278Z,107.47
2018-10-09T04:34:54.105Z,105.87
2018-10-09T04:37:21.935Z,93.90
2018-10-09T04:39:49.721Z,90.83
2018-10-09T04:42:17.528Z,82.27
2018-10-09T04:44:45.370Z,82.13
2018-10-09T04:47:13.211Z,90.13
2018-10-09T04:49:41.055Z,95.47
2018-10-09T04:52:08.939Z,88.57
2018-10-09T04:54:36.738Z,96.47
2018-10-09T04:57:04.635Z,91.83
2018-10-09T04:59:32.706Z,88.33
2018-10-09T05:02:00.609Z,92.00
2018-10-09T05:04:28.473Z,93.60
2018-10-09T05:06:56.303Z,90.63
2018-10-09T05:09:24.164Z,90.33
2018-10-09T05:11:52.002Z,93.63
2018-10-09T05:14:19.901Z,99.90
2018-10-09T05:16:47.872Z,105.43
2018-10-09T05:19:33.164Z,95.83
2018-10-09T05:22:02.382Z,94.17
2018-10-09T05:24:30.181Z,97.40
2018-10-09T05:26:58.015Z,101.03
2018-10-09T05:29:25.846Z,104.33
2018-10-09T05:31:53.713Z,106.73
2018-10-09T05:34:21.633Z,110.50
2018-10-09T05:36:49.448Z,108.60
2018-10-09T05:39:17.307Z,106.00
2018-10-09T05:41:45.138Z,110.70
2018-10-09T05:44:12.982Z,113.23
2018-10-09T05:46:40.803Z,110.80
2018-10-09T05:49:08.626Z,110.27
2018-10-09T05:51:37.457Z,111.50
2018-10-09T05:54:05.278Z,111.57
2018-10-09T05:56:33.128Z,115.50
2018-10-09T05:59:00.945Z,113.73
2018-10-09T06:01:28.816Z,102.30
2018-10-09T06:03:56.595Z,108.40
2018-10-09T06:06:24.440Z,119.83
2018-10-09T06:08:52.294Z,109.17
2018-10-09T06:11:20.162Z,110.93
2018-10-09T06:13:48.067Z,110.63
2018-10-09T06:16:15.888Z,106.00
2018-10-09T06:18:43.700Z,106.60
2018-10-09T06:21:11.593Z,103.27
2018-10-09T06:23:39.417Z,115.17
2018-10-09T06:26:07.790Z,112.93
2018-10-09T06:28:36.003Z,112.07
2018-10-09T06:31:17.410Z,114.20
2018-10-09T06:33:45.615Z,115.30
2018-10-09T06:36:20.977Z,116.27
2018-10-09T06:38:49.186Z,112.13
2018-10-09T06:41:34.167Z,116.73
2018-10-09T06:44:36.890Z,115.40
2018-10-09T06:47:39.290Z,117.30
2018-10-09T06:50:07.601Z,119.20
2018-10-09T06:52:35.804Z,129.57
2018-10-09T06:55:04.055Z,124.70
2018-10-09T06:57:32.208Z,122.83
2018-10-09T07:00:00.479Z,123.83
2018-10-09T07:02:28.638Z,126.50
2018-10-09T07:04:56.914Z,124.80
2018-10-09T07:07:25.089Z,130.87
2018-10-09T07:09:53.369Z,133.90
2018-10-09T07:12:21.564Z,129.17
2018-10-09T07:14:49.770Z,122.57
2018-10-09T07:17:17.973Z,114.07
2018-10-09T07:19:46.170Z,113.17
2018-10-09T07:22:14.357Z,107.77
2018-10-09T07:24:42.629Z,107.10
2018-10-09T07:27:10.822Z,106.80
2018-10-09T07:29:39.063Z,105.37
2018-10-09T07:32:10.303Z,104.97
2018-10-09T07:34:38.541Z,104.77
2018-10-09T07:37:06.774Z,107.37
2018-10-09T07:39:35.020Z,108.77
2018-10-09T07:42:03.224Z,103.70
2018-10-09T07:44:31.421Z,103.53
2018-10-09T07:46:59.626Z,100.93
2018-10-09T07:49:27.777Z,102.63
2018-10-09T07:51:55.956Z,89.53
2018-10-09T07:54:24.262Z,91.67
2018-10-09T07:56:52.421Z,85.93
2018-10-09T07:59:21.638Z,77.27
2018-10-09T08:01:49.825Z,65.83
2018-10-09T08:04:19.057Z,63.57
2018-10-09T08:06:47.265Z,59.43
2018-10-09T08:09:15.466Z,51.47
2018-10-09T08:11:43.616Z,47.43
2018-10-09T08:14:11.821Z,37.33
2018-10-09T08:16:40.109Z,36.30
2018-10-09T08:19:09.343Z,31.63
2018-10-09T08:21:37.567Z,31.77
2018-10-09T08:24:06.011Z,26.33
2018-10-09T08:26:34.193Z,24.13
2018-10-09T08:29:02.479Z,22.33
2018-10-09T08:31:30.711Z,21.23
2018-10-09T08:33:58.935Z,20.97
2018-10-09T08:36:27.238Z,17.50
2018-10-09T08:38:55.444Z,16.60
2018-10-09T08:41:23.748Z,16.87
2018-10-09T08:43:51.949Z,15.87
2018-10-09T08:46:21.286Z,16.07
2018-10-09T08:48:49.415Z,15.10
2018-10-09T08:51:17.620Z,14.20
2018-10-09T08:53:45.841Z,14.03
2018-10-09T08:56:14.023Z,12.83
2018-10-09T08:58:42.188Z,13.80
2018-10-09T09:01:10.416Z,12.45
2018-10-09T09:03:38.593Z,12.78
2018-10-09T09:06:06.855Z,10.68
2018-10-09T09:08:35.109Z,10.72
2018-10-09T09:11:03.283Z,10.08
2018-10-09T09:13:31.458Z,9.80
2018-10-09T09:16:00.693Z,10.17
2018-10-09T09:18:28.983Z,8.93
2018-10-09T09:20:57.197Z,10.18
2018-10-09T09:23:25.474Z,9.23
2018-10-09T09:25:53.755Z,9.43
2018-10-09T09:28:21.960Z,9.63
2018-10-09T09:30:50.199Z,9.65
2018-10-09T09:33:18.447Z,8.45
2018-10-09T09:35:46.688Z,8.25
2018-10-09T09:38:14.860Z,8.68
2018-10-09T09:41:11.224Z,8.63
2018-10-09T09:43:39.759Z,6.85
2018-10-09T09:46:18.897Z,7.22
2018-10-09T09:49:31.690Z,7.75
2018-10-09T09:54:28.247Z,7.90
2018-10-09T09:56:56.536Z,6.17
2018-10-09T09:59:24.972Z,6.65
2018-10-09T10:01:53.288Z,6.33
2018-10-09T10:04:22.692Z,7.55
2018-10-09T10:06:50.955Z,4.87
2018-10-09T10:09:20.310Z,5.15
2018-10-09T10:11:51.485Z,4.67
2018-10-09T10:14:19.828Z,5.05
2018-10-09T10:16:48.175Z,4.67
2018-10-09T10:19:16.625Z,4.90
2018-10-09T10:21:45.102Z,4.83
2018-10-09T10:24:13.424Z,4.20
2018-10-09T10:26:41.783Z,4.87
2018-10-09T10:29:10.207Z,3.25
2018-10-09T10:31:39.487Z,5.10
2018-10-09T10:34:07.750Z,2.87
2018-10-09T10:36:36.207Z,2.70
2018-10-09T10:39:08.045Z,3.33
2018-10-09T10:41:36.587Z,2.47
2018-10-09T10:44:04.943Z,2.55
2018-10-09T10:46:39.267Z,3.72
2018-10-09T10:49:10.237Z,3.52
2018-10-09T10:51:38.627Z,3.90
2018-10-09T10:54:07.036Z,3.33
2018-10-09T10:56:35.777Z,3.72
2018-10-09T10:59:04.280Z,3.08
2018-10-09T11:01:32.794Z,3.40
2018-10-09T11:04:01.132Z,3.72
2018-10-09T11:06:29.486Z,2.83
2018-10-09T11:08:57.807Z,3.05
2018-10-09T11:11:26.138Z,4.05
2018-10-09T11:13:54.476Z,3.35
2018-10-09T11:16:23.036Z,2.90
2018-10-09T11:18:51.570Z,1.67
2018-10-09T11:21:20.006Z,2.22
2018-10-09T11:23:48.308Z,2.33
2018-10-09T11:26:16.584Z,2.65
2018-10-09T11:28:44.916Z,3.55
2018-10-09T11:31:13.227Z,2.62
2018-10-09T11:33:41.594Z,1.95
2018-10-09T11:36:10.891Z,1.80
2018-10-09T11:38:39.126Z,2.22
2018-10-09T11:41:07.432Z,2.25
2018-10-09T11:43:35.741Z,2.35
2018-10-09T11:46:05.099Z,1.87
2018-10-09T11:48:53.700Z,2.12
2018-10-09T11:51:24.089Z,1.85
2018-10-09T11:53:52.368Z,2.45
2018-10-09T11:56:20.711Z,2.42
2018-10-09T11:58:49.014Z,3.00
2018-10-09T12:01:18.304Z,1.70
2018-10-09T12:03:46.592Z,1.80
2018-10-09T12:06:14.860Z,1.82
2018-10-09T12:08:43.185Z,2.62
2018-10-09T12:11:11.541Z,1.70
2018-10-09T12:13:39.789Z,1.90
2018-10-09T12:16:08.310Z,2.20
2018-10-09T12:18:36.884Z,1.80
2018-10-09T12:21:05.199Z,1.95
2018-10-09T12:23:33.873Z,1.67
2018-10-09T12:26:02.138Z,1.67
2018-10-09T12:28:30.518Z,1.40
2018-10-09T12:30:58.826Z,1.40
2018-10-09T12:33:27.258Z,1.65
2018-10-09T12:35:55.551Z,1.62
2018-10-09T12:38:25.040Z,1.47
2018-10-09T12:40:53.318Z,1.40
2018-10-09T12:43:21.707Z,1.35
2018-10-09T12:45:49.953Z,1.85
2018-10-09T12:48:18.252Z,1.85
2018-10-09T12:50:46.739Z,2.45
2018-10-09T12:53:15.310Z,1.82
2018-10-09T12:55:43.586Z,1.30
2018-10-09T12:58:12.019Z,1.80
2018-10-09T13:00:40.242Z,2.90
2018-10-09T13:03:08.741Z,2.40
2018-10-09T13:05:36.975Z,1.92
2018-10-09T13:08:05.409Z,1.47
2018-10-09T13:10:33.701Z,2.20
2018-10-09T13:13:02.032Z,1.95
2018-10-09T13:15:30.290Z,1.32
2018-10-09T13:17:58.654Z,2.17
2018-10-09T13:20:27.101Z,3.00
2018-10-09T13:22:55.457Z,2.42
2018-10-09T13:25:23.887Z,2.40
2018-10-09T13:27:52.245Z,2.12
2018-10-09T13:30:20.598Z,2.15
2018-10-09T13:32:49.000Z,1.20
2018-10-09T13:35:19.485Z,1.67
2018-10-09T13:37:47.723Z,1.80
2018-10-09T13:40:16.288Z,2.12
2018-10-09T13:42:44.602Z,1.82
2018-10-09T13:45:12.944Z,2.30
2018-10-09T13:47:41.317Z,2.12
2018-10-09T13:50:09.588Z,1.90
2018-10-09T13:52:38.010Z,2.37
2018-10-09T13:55:06.301Z,2.42
2018-10-09T13:57:35.105Z,2.62
2018-10-09T14:00:03.525Z,2.17
2018-10-09T14:02:31.850Z,1.72
2018-10-09T14:05:00.444Z,2.62
2018-10-09T14:07:28.820Z,1.70
2018-10-09T14:09:57.160Z,2.37
2018-10-09T14:12:25.455Z,2.92
2018-10-09T14:14:53.864Z,2.55
2018-10-09T14:17:22.267Z,2.45
2018-10-09T14:19:50.976Z,2.40
2018-10-09T14:22:19.341Z,2.80
2018-10-09T14:24:47.705Z,2.47
2018-10-09T14:27:16.065Z,2.15
2018-10-09T14:29:44.446Z,2.15
2018-10-09T14:32:12.707Z,3.85
2018-10-09T14:34:41.306Z,1.95
2018-10-09T14:37:09.605Z,1.98
2018-10-09T14:39:38.023Z,2.08
2018-10-09T14:42:06.826Z,1.77
2018-10-09T14:44:35.381Z,1.95
2018-10-09T14:47:03.843Z,1.57
2018-10-09T14:49:31.830Z,1.67
2018-10-09T14:51:59.802Z,1.72
2018-10-09T14:54:27.791Z,2.17
2018-10-09T14:56:56.944Z,1.75
2018-10-09T14:59:25.860Z,1.82
2018-10-09T15:01:53.932Z,2.47
2018-10-09T15:04:21.858Z,2.65
2018-10-09T15:06:49.879Z,2.52
2018-10-09T15:09:17.887Z,2.42
2018-10-09T15:11:47.014Z,2.22
2018-10-09T15:14:14.985Z,2.75
2018-10-09T15:16:44.644Z,2.80
2018-10-09T15:19:14.698Z,2.85
2018-10-09T15:21:42.677Z,3.27
2018-10-09T15:24:10.623Z,2.65
2018-10-09T15:26:38.540Z,2.87
2018-10-09T15:29:07.153Z,2.98
2018-10-09T15:31:35.135Z,3.60
2018-10-09T15:36:55.619Z,4.00
2018-10-09T15:39:23.656Z,3.10
2018-10-09T15:41:51.548Z,3.25
2018-10-09T15:44:19.658Z,3.27
2018-10-09T15:46:47.537Z,3.47
2018-10-09T15:49:15.617Z,4.45
2018-10-09T15:51:43.531Z,3.62
2018-10-09T15:54:11.602Z,3.72
2018-10-09T15:56:39.575Z,4.30
2018-10-09T15:59:07.459Z,4.05
2018-10-09T16:01:35.349Z,4.25
2018-10-09T16:04:03.474Z,4.60
2018-10-09T16:06:31.393Z,5.87
2018-10-09T16:08:59.581Z,5.00
2018-10-09T16:11:27.721Z,5.20
2018-10-09T16:13:55.688Z,4.83
2018-10-09T16:16:23.630Z,4.83
2018-10-09T16:18:51.673Z,4.55
2018-10-09T16:21:19.595Z,4.42
2018-10-09T16:23:47.673Z,3.83
2018-10-09T16:26:15.582Z,3.90
2018-10-09T16:28:43.604Z,4.62
2018-10-09T16:31:11.470Z,4.33
2018-10-09T16:33:39.570Z,5.72
2018-10-09T16:36:07.530Z,7.35
2018-10-09T16:43:54.888Z,4.30
2018-10-09T16:46:22.796Z,5.70
2018-10-09T16:48:55.414Z,4.70
2018-10-09T16:51:23.420Z,4.30
2018-10-09T16:53:51.244Z,6.25
2018-10-09T16:56:19.137Z,5.05
2018-10-09T16:58:46.986Z,4.62
2018-10-09T17:01:14.853Z,3.75
2018-10-09T17:03:42.714Z,4.65
2018-10-09T17:06:10.684Z,4.22
2018-10-09T17:08:38.586Z,4.12
2018-10-09T17:11:07.644Z,3.92
2018-10-09T17:13:35.586Z,4.53
2018-10-09T17:16:03.603Z,4.08
2018-10-09T17:18:31.412Z,4.37
2018-10-09T17:21:03.473Z,4.65
2018-10-09T17:23:32.096Z,3.92
2018-10-09T17:26:00.081Z,4.10
2018-10-09T17:28:29.292Z,4.85
2018-10-09T17:30:57.373Z,5.58
2018-10-09T17:33:25.320Z,5.17
2018-10-09T17:35:53.210Z,5.72
2018-10-09T17:38:26.106Z,5.75
2018-10-09T17:40:54.230Z,5.97
2018-10-09T17:43:22.142Z,4.92
2018-10-09T17:45:50.256Z,4.90
2018-10-09T17:48:18.347Z,6.30
2018-10-09T17:50:46.643Z,5.87
2018-10-09T17:53:15.004Z,5.63
2018-10-09T17:55:43.085Z,5.53
2018-10-09T17:58:11.090Z,6.10
2018-10-09T18:00:39.305Z,6.13
2018-10-09T18:03:07.375Z,6.33
2018-10-09T18:05:35.582Z,7.20
2018-10-09T18:08:03.566Z,6.47
2018-10-09T18:10:31.507Z,6.27
2018-10-09T18:12:59.383Z,7.27
2018-10-09T18:15:27.336Z,7.07
2018-10-09T18:17:55.256Z,6.40
2018-10-09T18:20:24.180Z,7.53
2018-10-09T18:22:52.079Z,6.77
2018-10-09T18:25:19.972Z,6.30
2018-10-09T18:27:47.884Z,6.23
2018-10-09T18:30:15.857Z,7.58
2018-10-09T18:32:43.847Z,7.33
2018-10-09T18:35:12.702Z,7.20
2018-10-09T18:37:41.504Z,7.60
2018-10-09T18:40:09.460Z,6.90
2018-10-09T18:42:37.355Z,6.67
2018-10-09T18:45:05.293Z,7.20
2018-10-09T18:47:43.741Z,7.53
2018-10-09T18:50:11.812Z,9.10
2018-10-09T18:52:40.258Z,8.37
2018-10-09T18:55:10.017Z,8.73
2018-10-09T18:57:37.902Z,9.40
2018-10-09T19:00:06.897Z,8.30
2018-10-09T19:02:34.843Z,9.30
2018-10-09T19:05:02.773Z,9.57
2018-10-09T19:07:30.667Z,9.33
2018-10-09T19:09:58.612Z,9.87
2018-10-09T19:12:26.502Z,10.80
2018-10-09T19:14:54.376Z,11.73
2018-10-09T19:17:22.255Z,10.00
2018-10-09T19:19:50.133Z,12.67
2018-10-09T19:22:18.003Z,11.53
2018-10-09T19:24:45.870Z,12.60
2018-10-09T19:27:13.758Z,11.40
2018-10-09T19:29:41.680Z,12.00
2018-10-09T19:32:09.595Z,12.63
2018-10-09T19:34:37.435Z,11.00
2018-10-09T19:37:05.346Z,11.07
2018-10-09T19:39:34.507Z,11.10
2018-10-09T19:42:02.428Z,10.93
2018-10-09T19:44:30.301Z,18.47
2018-10-09T19:46:58.165Z,11.80
2018-10-09T19:49:26.033Z,12.87
2018-10-09T19:51:53.890Z,12.10
2018-10-09T19:54:21.818Z,12.13
2018-10-09T19:56:49.680Z,12.23
2018-10-09T19:59:17.638Z,12.27
2018-10-09T20:01:45.481Z,12.57
2018-10-09T20:04:13.373Z,13.07
2018-10-09T20:06:41.256Z,11.80
2018-10-09T20:09:10.712Z,12.80
2018-10-09T20:11:38.781Z,12.87
2018-10-09T20:14:07.074Z,12.93
2018-10-09T20:16:34.968Z,13.67
2018-10-09T20:19:02.870Z,13.83
2018-10-09T20:21:30.805Z,14.70
2018-10-09T20:23:58.675Z,14.40
2018-10-09T20:26:26.657Z,15.00
2018-10-09T20:28:54.542Z,15.07
2018-10-09T20:31:23.429Z,15.97
2018-10-09T20:33:51.342Z,15.53
2018-10-09T20:36:19.234Z,16.97
2018-10-09T20:38:47.058Z,17.90
2018-10-09T20:41:14.904Z,16.53
2018-10-09T20:43:43.051Z,15.80
2018-10-09T20:46:10.988Z,16.43
2018-10-09T20:48:38.888Z,16.03
2018-10-09T20:51:07.130Z,16.47
2018-10-09T20:53:35.097Z,16.90
2018-10-09T20:56:02.938Z,16.07
2018-10-09T20:58:30.813Z,18.17
2018-10-09T21:00:59.631Z,16.13
2018-10-09T21:03:27.834Z,16.53
2018-10-09T21:05:55.983Z,15.83
2018-10-09T21:08:23.863Z,16.43
2018-10-09T21:10:51.719Z,16.40
2018-10-09T21:13:19.522Z,17.10
2018-10-09T21:15:47.373Z,16.93
2018-10-09T21:18:15.262Z,17.43
2018-10-09T21:20:43.106Z,17.07
2018-10-09T21:23:10.943Z,18.13
2018-10-09T21:25:38.909Z,17.80
2018-10-09T21:28:06.884Z,18.77
2018-10-09T21:30:34.779Z,19.93
2018-10-09T21:33:02.705Z,20.80
2018-10-09T21:35:30.593Z,20.07
2018-10-09T21:37:58.446Z,20.30
2018-10-09T21:40:26.248Z,20.63
2018-10-09T21:42:55.108Z,20.10
2018-10-09T21:45:22.977Z,19.67
2018-10-09T21:47:56.471Z,20.40
2018-10-09T21:50:24.393Z,18.60
2018-10-09T21:52:52.212Z,18.87
2018-10-09T21:55:20.032Z,18.30
2018-10-09T21:57:47.897Z,17.77
2018-10-09T22:00:15.867Z,20.73
2018-10-09T22:02:43.736Z,20.60
2018-10-09T22:05:11.587Z,18.87
2018-10-09T22:07:40.436Z,19.57
2018-10-09T22:10:08.304Z,18.83
2018-10-09T22:12:36.271Z,16.80
2018-10-09T22:15:05.504Z,16.37
2018-10-09T22:17:33.358Z,17.07
2018-10-09T22:20:01.224Z,15.30
2018-10-09T22:22:29.048Z,15.03
2018-10-09T22:24:56.898Z,15.13
2018-10-09T22:27:24.768Z,14.50
2018-10-09T22:29:53.923Z,15.33
2018-10-09T22:32:21.824Z,15.23
2018-10-09T22:34:50.784Z,15.37
2018-10-09T22:37:19.329Z,17.53
2018-10-09T22:39:47.193Z,18.90
2018-10-09T22:42:15.679Z,19.40
2018-10-09T22:44:43.536Z,19.03
2018-10-09T22:47:11.395Z,20.10
2018-10-09T22:49:39.251Z,20.50
2018-10-09T22:52:07.112Z,21.10
2018-10-09T22:54:34.948Z,22.00
2018-10-09T22:57:02.778Z,23.57
2018-10-09T22:59:30.610Z,23.00
2018-10-09T23:01:58.473Z,21.23
2018-10-09T23:04:26.284Z,22.50
2018-10-09T23:06:55.175Z,22.23
2018-10-09T23:09:22.996Z,23.70
2018-10-09T23:12:01.726Z,23.67
2018-10-09T23:14:51.056Z,22.37
2018-10-09T23:17:29.285Z,24.67
2018-10-09T23:20:10.595Z,24.27
2018-10-09T23:22:38.607Z,22.73
2018-10-09T23:25:07.563Z,24.73
2018-10-09T23:27:35.501Z,22.73
2018-10-09T23:30:03.801Z,24.20
2018-10-09T23:32:31.750Z,24.20
2018-10-09T23:34:59.686Z,23.97
2018-10-09T23:37:27.578Z,25.97
2018-10-09T23:43:04.809Z,26.90
2018-10-09T23:45:32.634Z,28.70
2018-10-09T23:48:07.452Z,28.77
2018-10-09T23:50:37.141Z,28.33
2018-10-09T23:53:05.146Z,29.10
2018-10-09T23:55:33.256Z,30.23
2018-10-09T23:58:01.272Z,30.00
